createdAt,value
2019-06-20T00:00:28.041Z,11.93
2019-06-20T00:04:31.163Z,9.27
2019-06-20T00:08:34.256Z,13.57
2019-06-20T00:12:37.377Z,11.37
2019-06-20T00:16:40.452Z,8.30
2019-06-20T00:20:43.558Z,14.30
2019-06-20T00:24:46.662Z,14.37
2019-06-20T00:28:49.772Z,11.93
2019-06-20T00:32:52.868Z,7.93
2019-06-20T00:36:55.964Z,10.30
2019-06-20T00:40:59.079Z,11.50
2019-06-20T00:45:02.174Z,9.97
2019-06-20T00:49:05.324Z,8.87
2019-06-20T00:53:08.369Z,10.03
2019-06-20T00:57:11.462Z,6.43
2019-06-20T01:01:14.569Z,10.03
2019-06-20T01:05:17.661Z,12.63
2019-06-20T01:09:20.770Z,11.30
2019-06-20T01:13:32.989Z,6.87
2019-06-20T01:17:28.611Z,7.30
2019-06-20T01:21:31.727Z,6.80
2019-06-20T01:25:38.414Z,10.13
2019-06-20T01:29:41.498Z,10.33
2019-06-20T01:33:44.591Z,6.43
2019-06-20T01:37:47.689Z,6.93
2019-06-20T01:41:50.791Z,9.60
2019-06-20T01:45:53.893Z,8.90
2019-06-20T01:49:56.989Z,7.23
2019-06-20T01:54:00.105Z,6.47
2019-06-20T01:58:03.195Z,9.33
2019-06-20T02:02:06.402Z,7.53
2019-06-20T02:06:09.496Z,9.03
2019-06-20T02:10:12.714Z,6.33
2019-06-20T02:14:15.825Z,7.60
2019-06-20T02:18:18.915Z,9.03
2019-06-20T02:22:22.013Z,9.63
2019-06-20T02:26:25.118Z,11.00
2019-06-20T02:30:28.220Z,6.40
2019-06-20T02:34:31.315Z,9.60
2019-06-20T02:38:34.420Z,11.40
2019-06-20T02:42:37.620Z,18.13
2019-06-20T02:46:40.717Z,8.93
2019-06-20T02:50:43.813Z,9.30
2019-06-20T02:54:46.911Z,10.27
2019-06-20T02:58:50.017Z,8.60
2019-06-20T03:02:53.120Z,11.57
2019-06-20T03:06:56.225Z,11.13
2019-06-20T03:10:59.258Z,9.57
2019-06-20T03:15:02.337Z,11.30
2019-06-20T03:19:05.422Z,13.87
2019-06-20T03:23:08.516Z,7.10
2019-06-20T03:27:11.617Z,10.50
2019-06-20T03:31:14.722Z,12.20
2019-06-20T03:35:17.818Z,8.00
2019-06-20T03:39:20.921Z,16.40
2019-06-20T03:43:24.021Z,8.37
2019-06-20T03:47:27.121Z,15.47
2019-06-20T03:51:30.221Z,10.63
2019-06-20T03:55:33.342Z,14.93
2019-06-20T03:59:36.425Z,8.63
2019-06-20T04:03:39.533Z,8.80
2019-06-20T04:07:42.625Z,13.10
2019-06-20T04:11:45.669Z,7.97
2019-06-20T04:15:48.841Z,5.17
2019-06-20T04:19:51.929Z,5.83
2019-06-20T04:23:55.037Z,12.17
2019-06-20T04:27:58.131Z,12.80
2019-06-20T04:32:01.237Z,9.23
2019-06-20T04:36:04.429Z,5.83
2019-06-20T04:40:07.651Z,8.20
2019-06-20T04:44:10.752Z,10.30
2019-06-20T04:48:13.842Z,6.37
2019-06-20T04:52:16.948Z,8.83
2019-06-20T04:56:20.085Z,6.97
2019-06-20T05:00:23.345Z,5.87
2019-06-20T05:04:26.468Z,5.87
2019-06-20T05:08:29.669Z,5.53
2019-06-20T05:12:32.770Z,7.10
2019-06-20T05:16:35.829Z,12.90
2019-06-20T05:20:38.957Z,4.03
2019-06-20T05:24:42.049Z,10.43
2019-06-20T05:28:45.155Z,8.23
2019-06-20T05:32:48.256Z,9.57
2019-06-20T05:36:51.359Z,4.70
2019-06-20T05:40:54.453Z,7.50
2019-06-20T05:44:57.553Z,11.70
2019-06-20T05:49:01.138Z,4.60
2019-06-20T05:53:04.677Z,10.07
2019-06-20T05:57:07.782Z,7.03
2019-06-20T06:01:11.859Z,7.90
2019-06-20T06:05:15.713Z,6.57
2019-06-20T06:09:18.825Z,6.83
2019-06-20T06:13:21.873Z,6.33
2019-06-20T06:17:24.933Z,6.43
2019-06-20T06:21:28.017Z,7.63
2019-06-20T06:25:31.142Z,8.07
2019-06-20T06:29:34.229Z,6.97
2019-06-20T06:33:37.323Z,9.27
2019-06-20T06:37:40.534Z,6.97
2019-06-20T06:41:43.647Z,6.57
2019-06-20T06:45:46.734Z,6.40
2019-06-20T06:49:49.825Z,7.13
2019-06-20T06:53:52.930Z,7.30
2019-06-20T06:57:56.104Z,8.57
2019-06-20T07:01:59.234Z,13.57
2019-06-20T07:06:02.428Z,7.90
2019-06-20T07:10:05.971Z,7.77
2019-06-20T07:14:09.040Z,10.20
2019-06-20T07:18:12.101Z,7.70
2019-06-20T07:22:15.256Z,8.57
2019-06-20T07:26:18.362Z,10.13
2019-06-20T07:30:21.512Z,8.30
2019-06-20T07:34:24.678Z,7.13
2019-06-20T07:38:27.756Z,7.27
2019-06-20T07:42:30.860Z,9.57
2019-06-20T07:46:33.961Z,11.07
2019-06-20T07:50:39.343Z,11.17
2019-06-20T07:54:41.806Z,7.67
2019-06-20T07:58:44.894Z,8.37
2019-06-20T08:02:48.000Z,7.17
2019-06-20T08:06:51.143Z,16.57
2019-06-20T08:10:54.306Z,19.17
2019-06-20T08:15:01.030Z,39.17
2019-06-20T08:19:02.153Z,45.53
2019-06-20T08:23:05.251Z,53.57
2019-06-20T08:27:08.344Z,29.77
2019-06-20T08:31:11.461Z,22.43
2019-06-20T08:35:14.659Z,31.50
2019-06-20T08:39:17.745Z,23.70
2019-06-20T08:43:20.848Z,20.20
2019-06-20T08:47:23.944Z,13.73
2019-06-20T08:51:27.054Z,20.27
2019-06-20T08:55:30.154Z,12.27
2019-06-20T08:59:33.246Z,17.40
2019-06-20T09:03:36.351Z,22.40
2019-06-20T09:07:41.760Z,17.67
2019-06-20T09:11:44.196Z,13.00
2019-06-20T09:15:47.245Z,13.30
2019-06-20T09:19:51.705Z,11.20
2019-06-20T09:23:55.706Z,11.63
2019-06-20T09:27:58.854Z,8.37
2019-06-20T09:32:01.937Z,9.23
2019-06-20T09:36:05.044Z,10.97
2019-06-20T09:40:08.394Z,9.10
2019-06-20T09:44:11.464Z,10.83
2019-06-20T09:48:14.853Z,9.60
2019-06-20T09:52:17.952Z,9.10
2019-06-20T09:56:21.066Z,7.13
2019-06-20T10:00:24.666Z,7.40
2019-06-20T10:04:27.777Z,9.77
2019-06-20T10:08:30.881Z,7.00
2019-06-20T10:12:33.984Z,8.20
2019-06-20T10:16:45.858Z,7.60
2019-06-20T10:20:41.713Z,7.20
2019-06-20T10:24:45.843Z,6.43
2019-06-20T10:28:51.317Z,9.40
2019-06-20T10:32:54.294Z,11.00
2019-06-20T10:36:57.417Z,6.73
2019-06-20T10:41:00.501Z,12.80
2019-06-20T10:45:03.872Z,8.17
2019-06-20T10:49:07.014Z,7.63
2019-06-20T10:53:10.142Z,10.10
2019-06-20T10:57:13.333Z,8.17
2019-06-20T11:01:16.413Z,7.47
2019-06-20T11:05:19.824Z,8.73
2019-06-20T11:09:22.958Z,4.73
2019-06-20T11:13:26.052Z,7.13
2019-06-20T11:17:29.117Z,8.50
2019-06-20T11:21:32.216Z,7.30
2019-06-20T11:25:35.318Z,8.73
2019-06-20T11:29:38.416Z,7.73
2019-06-20T11:33:42.122Z,7.27
2019-06-20T11:37:45.379Z,8.87
2019-06-20T11:41:48.579Z,6.63
2019-06-20T11:45:51.640Z,6.10
2019-06-20T11:49:54.768Z,6.03
2019-06-20T11:53:57.961Z,13.13
2019-06-20T11:58:01.050Z,3.97
2019-06-20T12:02:04.155Z,5.13
2019-06-20T12:06:07.262Z,13.13
2019-06-20T12:10:11.049Z,6.50
2019-06-20T12:14:14.160Z,7.33
2019-06-20T12:18:17.271Z,8.23
2019-06-20T12:22:20.368Z,6.50
2019-06-20T12:26:23.466Z,7.33
2019-06-20T12:30:26.876Z,7.60
2019-06-20T12:34:29.975Z,9.97
2019-06-20T12:38:33.090Z,6.20
2019-06-20T12:42:37.801Z,11.63
2019-06-20T12:46:41.013Z,9.03
2019-06-20T12:50:45.082Z,7.40
2019-06-20T12:54:49.158Z,7.17
2019-06-20T12:58:52.370Z,5.47
2019-06-20T13:02:55.485Z,7.20
2019-06-20T13:06:58.585Z,5.40
2019-06-20T13:11:01.668Z,8.10
2019-06-20T13:15:06.196Z,6.17
2019-06-20T13:19:09.298Z,7.93
2019-06-20T13:23:12.433Z,4.57
2019-06-20T13:27:15.505Z,4.90
2019-06-20T13:31:19.032Z,5.20
2019-06-20T13:35:22.220Z,4.17
2019-06-20T13:39:25.317Z,3.10
2019-06-20T13:43:28.438Z,5.00
2019-06-20T13:47:31.531Z,6.10
2019-06-20T13:51:34.631Z,5.23
2019-06-20T13:55:39.452Z,4.27
2019-06-20T13:59:43.383Z,8.93
2019-06-20T14:03:47.012Z,5.13
2019-06-20T14:07:54.373Z,4.80
2019-06-20T14:11:55.250Z,7.13
2019-06-20T14:15:58.352Z,4.60
2019-06-20T14:20:01.465Z,7.10
2019-06-20T14:24:04.548Z,4.10
2019-06-20T14:28:07.641Z,5.47
2019-06-20T14:32:22.235Z,4.70
2019-06-20T14:36:18.481Z,3.87
2019-06-20T14:40:21.768Z,4.90
2019-06-20T14:44:24.882Z,6.20
2019-06-20T14:48:27.976Z,4.20
2019-06-20T14:52:31.060Z,3.97
2019-06-20T14:56:34.174Z,2.57
2019-06-20T15:00:37.290Z,3.07
2019-06-20T15:04:40.369Z,4.23
2019-06-20T15:08:43.995Z,3.17
2019-06-20T15:12:49.900Z,3.30
2019-06-20T15:16:53.698Z,8.37
2019-06-20T15:20:59.295Z,3.47
2019-06-20T15:25:01.613Z,3.27
2019-06-20T15:29:06.268Z,4.77
2019-06-20T15:33:10.637Z,5.03
2019-06-20T15:37:13.886Z,7.73
2019-06-20T15:41:16.985Z,2.10
2019-06-20T15:45:20.098Z,2.73
2019-06-20T15:49:23.214Z,3.37
2019-06-20T15:53:26.281Z,4.20
2019-06-20T15:57:29.398Z,3.57
2019-06-20T16:01:32.490Z,4.53
2019-06-20T16:05:35.620Z,4.27
2019-06-20T16:09:38.703Z,4.37
2019-06-20T16:13:41.785Z,7.43
2019-06-20T16:17:44.897Z,2.93
2019-06-20T16:21:48.021Z,8.57
2019-06-20T16:25:51.093Z,2.83
2019-06-20T16:29:54.191Z,4.10
2019-06-20T16:33:57.307Z,4.10
2019-06-20T16:38:00.414Z,5.90
2019-06-20T16:42:03.499Z,10.10
2019-06-20T16:46:06.578Z,9.37
2019-06-20T16:50:10.017Z,7.43
2019-06-20T16:54:13.107Z,4.07
2019-06-20T16:58:16.202Z,6.10
2019-06-20T17:02:19.316Z,5.87
2019-06-20T17:06:22.413Z,8.63
2019-06-20T17:10:25.610Z,3.17
2019-06-20T17:14:28.714Z,3.83
2019-06-20T17:18:31.780Z,6.47
2019-06-20T17:22:34.922Z,3.33
2019-06-20T17:26:38.010Z,6.70
2019-06-20T17:30:41.114Z,6.50
2019-06-20T17:34:44.241Z,5.43
2019-06-20T17:38:47.323Z,6.60
2019-06-20T17:42:50.536Z,3.50
2019-06-20T17:46:53.621Z,3.47
2019-06-20T17:50:56.732Z,4.67
2019-06-20T17:54:59.823Z,5.97
2019-06-20T17:59:22.866Z,6.57
2019-06-20T18:03:25.373Z,5.97
2019-06-20T18:07:28.479Z,4.70
2019-06-20T18:11:31.581Z,8.97
2019-06-20T18:15:34.683Z,3.80
2019-06-20T18:19:37.764Z,7.40
2019-06-20T18:23:40.919Z,5.43
2019-06-20T18:27:43.981Z,5.77
2019-06-20T18:31:47.107Z,4.53
2019-06-20T18:35:50.192Z,7.70
2019-06-20T18:39:53.303Z,7.93
2019-06-20T18:43:56.387Z,6.97
2019-06-20T18:47:59.487Z,7.70
2019-06-20T18:52:02.598Z,6.43
2019-06-20T18:56:05.686Z,9.07
2019-06-20T19:00:10.416Z,6.63
2019-06-20T19:04:13.525Z,9.17
2019-06-20T19:08:16.629Z,7.87
2019-06-20T19:12:19.729Z,8.20
2019-06-20T19:16:22.827Z,7.37
2019-06-20T19:20:25.997Z,6.93
2019-06-20T19:24:29.156Z,6.00
2019-06-20T19:28:32.229Z,8.83
2019-06-20T19:32:35.330Z,6.73
2019-06-20T19:36:38.440Z,6.60
2019-06-20T19:40:44.504Z,8.07
2019-06-20T19:44:47.598Z,7.73
2019-06-20T19:48:50.704Z,5.67
2019-06-20T19:52:53.808Z,5.07
2019-06-20T19:56:56.903Z,4.13
2019-06-20T20:01:00.012Z,9.33
2019-06-20T20:05:17.913Z,4.13
2019-06-20T20:09:07.962Z,4.73
2019-06-20T20:13:11.055Z,7.33
2019-06-20T20:17:14.172Z,4.47
2019-06-20T20:21:17.232Z,2.63
2019-06-20T20:25:20.478Z,4.03
2019-06-20T20:29:23.551Z,3.33
2019-06-20T20:33:26.662Z,2.53
2019-06-20T20:37:29.754Z,3.23
2019-06-20T20:41:32.872Z,4.07
2019-06-20T20:45:35.916Z,2.60
2019-06-20T20:49:39.064Z,2.70
2019-06-20T20:53:42.129Z,8.57
2019-06-20T20:57:45.370Z,4.13
2019-06-20T21:01:48.792Z,4.53
2019-06-20T21:05:52.053Z,2.80
2019-06-20T21:09:55.185Z,3.70
2019-06-20T21:13:58.290Z,4.63
2019-06-20T21:18:01.377Z,3.33
2019-06-20T21:22:04.532Z,3.97
2019-06-20T21:26:07.687Z,4.83
2019-06-20T21:30:12.259Z,4.77
2019-06-20T21:34:15.318Z,4.13
2019-06-20T21:38:18.409Z,8.87
2019-06-20T21:42:21.518Z,4.03
2019-06-20T21:46:24.642Z,2.53
2019-06-20T21:50:27.722Z,7.93
2019-06-20T21:54:30.822Z,8.03
2019-06-20T21:58:33.928Z,5.60
2019-06-20T22:02:38.777Z,3.20
2019-06-20T22:06:41.866Z,3.87
2019-06-20T22:10:44.968Z,4.23
2019-06-20T22:14:48.078Z,5.40
2019-06-20T22:18:51.173Z,3.50
2019-06-20T22:22:54.234Z,3.23
2019-06-20T22:26:57.302Z,4.03
2019-06-20T22:31:00.364Z,5.17
2019-06-20T22:35:03.466Z,4.30
2019-06-20T22:39:07.930Z,6.03
2019-06-20T22:43:10.998Z,4.73
2019-06-20T22:47:14.112Z,5.33
2019-06-20T22:51:17.199Z,2.40
2019-06-20T22:55:20.304Z,4.47
2019-06-20T22:59:23.400Z,4.13
2019-06-20T23:03:26.505Z,4.03
2019-06-20T23:07:29.625Z,8.03
2019-06-20T23:11:32.709Z,3.90
2019-06-20T23:15:35.801Z,4.70
2019-06-20T23:19:38.906Z,2.80
2019-06-20T23:23:41.952Z,6.40
2019-06-20T23:27:45.014Z,3.67
2019-06-20T23:31:48.108Z,5.17
2019-06-20T23:35:51.214Z,5.03
2019-06-20T23:39:54.306Z,2.53
2019-06-20T23:43:57.408Z,2.60
2019-06-20T23:48:00.512Z,5.67
2019-06-20T23:52:08.856Z,4.87
2019-06-20T23:56:11.920Z,4.60
